createdAt,value
2022-09-18T00:01:39.339Z,1.00
2022-09-18T00:04:11.807Z,1.50
2022-09-18T00:06:43.666Z,2.00
2022-09-18T00:09:15.898Z,2.00
2022-09-18T00:11:49.453Z,1.00
2022-09-18T00:14:23.262Z,2.00
2022-09-18T00:16:51.950Z,2.00
2022-09-18T00:19:21.546Z,2.25
2022-09-18T00:21:51.842Z,1.00
2022-09-18T00:24:20.651Z,3.00
2022-09-18T00:26:48.672Z,2.50
2022-09-18T00:29:18.134Z,2.00
2022-09-18T00:31:46.682Z,3.00
2022-09-18T00:34:16.338Z,3.00
2022-09-18T00:36:44.818Z,2.00
2022-09-18T00:39:13.602Z,3.00
2022-09-18T00:41:45.275Z,3.20
2022-09-18T00:44:47.592Z,2.00
2022-09-18T00:47:49.499Z,2.50
2022-09-18T00:50:27.851Z,4.00
2022-09-18T00:53:02.240Z,3.50
2022-09-18T00:55:38.311Z,3.00
2022-09-18T00:58:07.003Z,3.00
2022-09-18T01:00:36.919Z,4.00
2022-09-18T01:03:05.201Z,5.00
2022-09-18T01:06:12.289Z,4.00
2022-09-18T01:09:01.294Z,3.00
2022-09-18T01:12:03.447Z,3.00
2022-09-18T01:15:15.797Z,2.00
2022-09-18T01:18:29.303Z,4.00
2022-09-18T01:21:02.926Z,4.00
2022-09-18T01:24:26.303Z,3.00
2022-09-18T01:27:06.686Z,3.00
2022-09-18T01:30:08.528Z,4.00
2022-09-18T01:33:03.489Z,3.00
2022-09-18T01:35:53.573Z,2.75
2022-09-18T01:38:36.449Z,4.00
2022-09-18T01:41:19.770Z,2.50
2022-09-18T01:44:24.327Z,3.50
2022-09-18T01:46:53.821Z,4.00
2022-09-18T01:49:29.765Z,5.00
2022-09-18T01:52:23.815Z,4.00
2022-09-18T01:54:53.891Z,5.00
2022-09-18T01:58:21.034Z,4.00
2022-09-18T02:01:00.464Z,2.00
2022-09-18T02:03:37.585Z,5.00
2022-09-18T02:06:32.562Z,6.00
2022-09-18T02:09:02.794Z,4.00
2022-09-18T02:11:34.061Z,6.00
2022-09-18T02:14:17.001Z,4.50
2022-09-18T02:17:05.761Z,7.00
2022-09-18T02:19:49.489Z,5.00
2022-09-18T02:22:21.664Z,5.00
2022-09-18T02:24:53.852Z,5.50
2022-09-18T02:27:25.338Z,4.50
2022-09-18T02:29:57.211Z,6.80
2022-09-18T02:32:25.009Z,6.00
2022-09-18T02:34:53.028Z,6.00
2022-09-18T02:38:19.012Z,4.50
2022-09-18T02:41:11.301Z,5.50
2022-09-18T02:44:11.797Z,4.00
2022-09-18T02:47:23.396Z,6.00
2022-09-18T02:50:13.774Z,5.50
2022-09-18T02:53:08.191Z,5.00
2022-09-18T02:55:50.776Z,4.00
2022-09-18T02:58:41.686Z,6.00
2022-09-18T03:01:11.078Z,5.00
2022-09-18T03:03:39.876Z,6.00
2022-09-18T03:06:11.029Z,5.00
2022-09-18T03:08:38.850Z,5.00
2022-09-18T03:11:06.591Z,4.00
2022-09-18T03:13:34.356Z,4.00
2022-09-18T03:16:02.444Z,4.50
2022-09-18T03:18:30.152Z,6.00
2022-09-18T03:20:57.798Z,4.00
2022-09-18T03:23:25.586Z,3.50
2022-09-18T03:25:53.202Z,4.00
2022-09-18T03:28:20.868Z,5.00
2022-09-18T03:30:50.057Z,5.00
2022-09-18T03:33:18.112Z,4.00
2022-09-18T03:35:45.766Z,3.50
2022-09-18T03:38:14.444Z,3.25
2022-09-18T03:40:47.839Z,5.00
2022-09-18T03:43:15.716Z,3.00
2022-09-18T03:45:44.380Z,4.00
2022-09-18T03:48:12.866Z,3.00
2022-09-18T03:50:40.521Z,3.00
2022-09-18T03:53:08.708Z,3.00
2022-09-18T03:55:37.599Z,3.00
2022-09-18T03:58:05.615Z,4.00
2022-09-18T04:00:33.789Z,3.00
2022-09-18T04:03:02.360Z,2.00
2022-09-18T04:05:30.056Z,3.00
2022-09-18T04:07:58.573Z,4.50
2022-09-18T04:10:27.187Z,3.00
2022-09-18T04:12:55.634Z,3.00
2022-09-18T04:15:23.371Z,3.00
2022-09-18T04:17:51.032Z,2.00
2022-09-18T04:20:19.548Z,3.00
2022-09-18T04:22:47.213Z,2.00
2022-09-18T04:25:17.770Z,3.50
2022-09-18T04:27:48.060Z,11.50
2022-09-18T04:30:16.268Z,4.50
2022-09-18T04:32:49.975Z,3.71
2022-09-18T04:35:18.778Z,6.00
2022-09-18T04:37:46.431Z,4.00
2022-09-18T04:40:15.077Z,2.00
2022-09-18T04:42:42.746Z,8.00
2022-09-18T04:45:11.511Z,5.50
2022-09-18T04:47:39.297Z,4.00
2022-09-18T04:50:08.992Z,5.00
2022-09-18T04:52:36.869Z,4.00
2022-09-18T04:55:05.101Z,3.00
2022-09-18T04:57:32.809Z,2.00
2022-09-18T05:00:01.572Z,2.25
2022-09-18T05:02:29.250Z,3.00
2022-09-18T05:04:56.903Z,3.00
2022-09-18T05:07:24.527Z,2.00
2022-09-18T05:09:52.192Z,5.00
2022-09-18T05:12:19.879Z,4.00
2022-09-18T05:14:47.553Z,6.00
2022-09-18T05:17:16.310Z,3.00
2022-09-18T05:19:44.781Z,2.00
2022-09-18T05:22:12.424Z,3.00
2022-09-18T05:24:40.880Z,1.50
2022-09-18T05:27:09.392Z,1.00
2022-09-18T05:29:37.770Z,2.00
2022-09-18T05:32:06.840Z,0.00
2022-09-18T05:34:35.301Z,2.00
2022-09-18T05:37:03.799Z,2.00
2022-09-18T05:39:32.271Z,1.25
2022-09-18T05:42:00.719Z,1.67
2022-09-18T05:44:28.340Z,2.00
2022-09-18T05:46:56.860Z,2.00
2022-09-18T05:49:25.392Z,1.00
2022-09-18T05:51:56.811Z,2.00
2022-09-18T05:54:25.263Z,1.00
2022-09-18T05:56:54.662Z,1.50
2022-09-18T05:59:23.115Z,2.00
2022-09-18T06:01:51.603Z,2.00
2022-09-18T06:04:20.072Z,1.00
2022-09-18T06:06:48.468Z,1.00
2022-09-18T06:09:16.648Z,0.00
2022-09-18T06:11:45.148Z,1.50
2022-09-18T06:14:12.741Z,0.50
2022-09-18T06:16:42.478Z,0.50
2022-09-18T06:19:11.215Z,0.25
2022-09-18T06:21:38.855Z,0.00
2022-09-18T06:24:09.046Z,1.00
2022-09-18T06:26:37.501Z,0.00
2022-09-18T06:29:05.963Z,0.75
2022-09-18T06:31:33.645Z,1.00
2022-09-18T06:34:02.139Z,2.00
2022-09-18T06:36:30.559Z,1.00
2022-09-18T06:38:58.321Z,1.00
2022-09-18T06:41:26.803Z,0.00
2022-09-18T06:43:55.255Z,1.00
2022-09-18T06:46:24.871Z,1.00
2022-09-18T06:48:53.387Z,1.00
2022-09-18T06:51:21.019Z,0.00
2022-09-18T06:53:49.467Z,1.00
2022-09-18T06:56:17.124Z,1.00
2022-09-18T06:58:45.341Z,0.00
2022-09-18T07:01:13.019Z,1.00
2022-09-18T07:03:40.743Z,1.00
2022-09-18T07:06:10.695Z,0.00
2022-09-18T07:08:38.304Z,0.50
2022-09-18T07:11:06.162Z,1.00
2022-09-18T07:13:34.600Z,0.00
2022-09-18T07:16:02.526Z,1.00
2022-09-18T07:18:30.707Z,1.00
2022-09-18T07:21:00.608Z,1.00
2022-09-18T07:23:31.061Z,1.00
2022-09-18T07:26:04.605Z,0.00
2022-09-18T07:28:32.300Z,0.00
2022-09-18T07:31:07.037Z,2.00
2022-09-18T07:33:35.699Z,1.00
2022-09-18T07:36:05.605Z,1.50
2022-09-18T07:38:34.547Z,1.00
2022-09-18T07:41:03.168Z,1.00
2022-09-18T07:43:31.956Z,4.00
2022-09-18T07:46:00.614Z,1.75
2022-09-18T07:48:30.074Z,0.00
2022-09-18T07:50:59.346Z,2.00
2022-09-18T07:53:28.094Z,1.00
2022-09-18T07:55:57.590Z,2.00
2022-09-18T07:58:25.786Z,2.00
2022-09-18T08:00:53.658Z,3.00
2022-09-18T08:03:25.540Z,2.00
2022-09-18T08:05:54.633Z,1.50
2022-09-18T08:08:22.383Z,0.00
2022-09-18T08:10:50.339Z,0.00
2022-09-18T08:13:18.109Z,1.00
2022-09-18T08:15:46.629Z,1.00
2022-09-18T08:18:14.397Z,1.00
2022-09-18T08:20:43.127Z,0.00
2022-09-18T08:23:12.646Z,0.00
2022-09-18T08:25:41.420Z,1.00
2022-09-18T08:28:11.117Z,1.00
2022-09-18T08:30:39.587Z,4.25
2022-09-18T08:33:10.634Z,3.00
2022-09-18T08:35:39.290Z,1.75
2022-09-18T08:38:10.436Z,4.50
2022-09-18T08:40:53.087Z,1.00
2022-09-18T08:43:54.288Z,1.00
2022-09-18T08:46:49.660Z,3.00
2022-09-18T08:49:42.315Z,1.25
2022-09-18T08:52:29.506Z,10.00
2022-09-18T08:55:30.435Z,1.75
2022-09-18T08:58:13.655Z,1.00
2022-09-18T09:01:02.034Z,1.00
2022-09-18T09:04:24.308Z,1.00
2022-09-18T09:07:22.660Z,1.00
2022-09-18T09:10:38.701Z,2.00
2022-09-18T09:13:55.547Z,2.00
2022-09-18T09:16:50.844Z,1.00
2022-09-18T09:19:55.407Z,2.00
2022-09-18T09:22:58.069Z,1.50
2022-09-18T09:26:05.635Z,1.00
2022-09-18T09:29:02.278Z,2.00
2022-09-18T09:31:51.803Z,2.00
2022-09-18T09:34:40.991Z,1.50
2022-09-18T09:37:19.472Z,4.00
2022-09-18T09:40:19.249Z,1.00
2022-09-18T09:42:59.031Z,1.00
2022-09-18T09:45:59.389Z,0.00
2022-09-18T09:48:53.747Z,0.00
2022-09-18T09:51:54.284Z,1.00
2022-09-18T09:54:21.925Z,1.00
2022-09-18T09:57:04.710Z,0.00
2022-09-18T10:00:13.043Z,0.00
2022-09-18T10:03:28.745Z,0.25
2022-09-18T10:06:29.977Z,1.00
2022-09-18T10:09:40.678Z,2.00
2022-09-18T10:12:29.624Z,2.00
2022-09-18T10:15:26.226Z,5.00
2022-09-18T10:18:01.588Z,14.33
2022-09-18T10:20:33.197Z,5.75
2022-09-18T10:23:25.534Z,3.00
2022-09-18T10:26:01.551Z,2.00
2022-09-18T10:28:30.762Z,3.00
2022-09-18T10:31:12.366Z,3.00
2022-09-18T10:33:50.278Z,1.00
2022-09-18T10:36:48.656Z,2.00
2022-09-18T10:39:39.024Z,1.00
2022-09-18T10:42:14.312Z,0.00
2022-09-18T10:44:49.863Z,0.00
2022-09-18T10:47:18.487Z,0.00
2022-09-18T10:50:10.576Z,0.00
2022-09-18T10:52:43.120Z,1.00
2022-09-18T10:55:14.641Z,1.00
2022-09-18T10:57:57.322Z,0.00
2022-09-18T11:00:25.845Z,1.00
2022-09-18T11:03:25.999Z,1.00
2022-09-18T11:06:19.048Z,1.00
2022-09-18T11:08:54.417Z,0.00
2022-09-18T11:11:35.401Z,0.00
2022-09-18T11:14:22.573Z,0.00
2022-09-18T11:16:57.028Z,0.00
2022-09-18T11:19:40.813Z,0.00
2022-09-18T11:22:39.747Z,18.00
2022-09-18T11:25:38.670Z,0.00
2022-09-18T11:28:40.608Z,2.00
2022-09-18T11:31:20.369Z,0.50
2022-09-18T11:33:57.075Z,0.00
2022-09-18T11:36:32.035Z,0.00
2022-09-18T11:39:01.267Z,0.00
2022-09-18T11:41:39.722Z,0.00
2022-09-18T11:44:31.720Z,2.00
2022-09-18T11:47:37.001Z,0.50
2022-09-18T11:50:19.589Z,0.00
2022-09-18T11:53:29.211Z,3.00
2022-09-18T11:56:19.128Z,0.00
2022-09-18T11:59:24.504Z,2.00
2022-09-18T12:02:33.266Z,2.00
2022-09-18T12:05:28.956Z,1.00
2022-09-18T12:08:08.366Z,3.00
2022-09-18T12:11:23.914Z,1.00
2022-09-18T12:14:39.976Z,7.00
2022-09-18T12:17:28.110Z,3.00
2022-09-18T12:20:32.702Z,2.00
2022-09-18T12:23:02.661Z,2.00
2022-09-18T12:26:05.604Z,0.00
2022-09-18T12:29:35.690Z,0.00
2022-09-18T12:32:41.363Z,1.00
2022-09-18T12:35:48.854Z,1.00
2022-09-18T12:38:31.249Z,0.00
2022-09-18T12:41:29.493Z,1.00
2022-09-18T12:44:20.002Z,1.00
2022-09-18T12:47:48.181Z,1.00
2022-09-18T12:51:00.410Z,0.00
2022-09-18T12:54:16.857Z,1.00
2022-09-18T12:57:37.897Z,7.00
2022-09-18T13:00:16.165Z,1.00
2022-09-18T13:03:27.044Z,8.00
2022-09-18T13:06:14.770Z,0.00
2022-09-18T13:09:27.043Z,0.75
2022-09-18T13:12:06.244Z,0.00
2022-09-18T13:14:50.991Z,1.00
2022-09-18T13:17:38.753Z,0.00
2022-09-18T13:20:22.574Z,0.00
2022-09-18T13:22:54.042Z,0.00
2022-09-18T13:25:39.599Z,2.00
2022-09-18T13:28:17.164Z,0.00
2022-09-18T13:30:45.639Z,0.00
2022-09-18T13:33:28.779Z,0.00
2022-09-18T13:35:58.517Z,0.00
2022-09-18T13:38:29.318Z,0.00
2022-09-18T13:41:05.202Z,1.00
2022-09-18T13:43:51.815Z,0.00
2022-09-18T13:46:41.206Z,3.00
2022-09-18T13:49:32.686Z,0.00
2022-09-18T13:52:35.329Z,0.00
2022-09-18T13:55:25.495Z,1.00
2022-09-18T13:58:31.463Z,5.00
2022-09-18T14:01:03.378Z,1.00
2022-09-18T14:03:42.270Z,2.00
2022-09-18T14:06:42.015Z,1.00
2022-09-18T14:09:48.405Z,1.00
2022-09-18T14:12:17.997Z,2.00
2022-09-18T14:15:24.720Z,1.00
2022-09-18T14:18:16.663Z,0.00
2022-09-18T14:20:52.598Z,0.00
2022-09-18T14:23:35.666Z,1.00
2022-09-18T14:26:32.306Z,0.00
2022-09-18T14:29:15.197Z,0.00
2022-09-18T14:31:53.123Z,0.00
2022-09-18T14:34:41.994Z,0.00
2022-09-18T14:37:31.595Z,0.00
2022-09-18T14:40:00.686Z,0.00
2022-09-18T14:42:42.058Z,1.00
2022-09-18T14:45:13.738Z,0.00
2022-09-18T14:47:48.159Z,0.00
2022-09-18T14:50:33.994Z,0.00
2022-09-18T14:53:26.097Z,0.50
2022-09-18T14:56:04.471Z,0.00
2022-09-18T14:58:40.467Z,0.00
2022-09-18T15:01:23.437Z,1.00
2022-09-18T15:03:54.336Z,2.00
2022-09-18T15:06:34.812Z,0.00
2022-09-18T15:09:05.190Z,0.00
2022-09-18T15:11:52.284Z,0.00
2022-09-18T15:14:45.506Z,15.00
2022-09-18T15:17:28.165Z,2.25
2022-09-18T15:20:14.321Z,1.00
2022-09-18T15:22:42.878Z,0.00
2022-09-18T15:25:16.508Z,0.00
2022-09-18T15:27:46.047Z,0.00
2022-09-18T15:30:22.436Z,1.50
2022-09-18T15:33:07.765Z,0.00
2022-09-18T15:35:38.201Z,0.00
2022-09-18T15:38:17.098Z,0.00
2022-09-18T15:40:49.155Z,17.33
2022-09-18T15:43:35.524Z,0.75
2022-09-18T15:46:25.402Z,0.00
2022-09-18T15:48:56.393Z,0.00
2022-09-18T15:51:29.660Z,0.00
2022-09-18T15:54:14.729Z,0.50
2022-09-18T15:57:01.011Z,0.75
2022-09-18T15:59:40.347Z,1.00
2022-09-18T16:02:39.108Z,1.00
2022-09-18T16:05:15.684Z,0.50
2022-09-18T16:08:21.339Z,29.50
2022-09-18T16:10:55.051Z,8.00
2022-09-18T16:13:26.217Z,13.33
2022-09-18T16:16:12.356Z,0.50
2022-09-18T16:19:10.521Z,2.00
2022-09-18T16:21:44.944Z,3.00
2022-09-18T16:24:31.380Z,1.00
2022-09-18T16:27:07.336Z,1.00
2022-09-18T16:29:35.930Z,1.00
2022-09-18T16:32:03.693Z,0.00
2022-09-18T16:34:32.975Z,1.00
2022-09-18T16:37:01.104Z,4.50
2022-09-18T16:39:28.768Z,5.00
2022-09-18T16:41:56.469Z,4.00
2022-09-18T16:44:25.083Z,5.50
2022-09-18T16:47:06.165Z,1.00
2022-09-18T16:49:45.586Z,3.00
2022-09-18T16:52:14.550Z,2.00
2022-09-18T16:54:43.340Z,1.25
2022-09-18T16:57:19.746Z,1.75
2022-09-18T16:59:51.047Z,5.00
2022-09-18T17:02:25.818Z,2.50
2022-09-18T17:04:54.635Z,1.00
2022-09-18T17:07:23.082Z,2.00
2022-09-18T17:09:52.721Z,1.00
2022-09-18T17:12:20.427Z,1.00
2022-09-18T17:14:48.004Z,1.00
2022-09-18T17:17:15.836Z,2.00
2022-09-18T17:19:43.586Z,1.00
2022-09-18T17:22:12.161Z,1.00
2022-09-18T17:24:41.267Z,1.00
2022-09-18T17:27:09.693Z,1.00
2022-09-18T17:29:37.329Z,1.00
2022-09-18T17:32:06.458Z,1.00
2022-09-18T17:34:34.984Z,2.00
2022-09-18T17:37:04.358Z,2.00
2022-09-18T17:39:32.801Z,1.00
2022-09-18T17:42:00.468Z,2.00
2022-09-18T17:44:29.075Z,2.00
2022-09-18T17:46:56.727Z,2.00
2022-09-18T17:49:25.654Z,1.00
2022-09-18T17:51:53.226Z,1.00
2022-09-18T17:54:20.801Z,1.00
2022-09-18T17:56:49.248Z,1.00
2022-09-18T17:59:18.347Z,1.00
2022-09-18T18:01:47.286Z,1.00
2022-09-18T18:04:16.366Z,1.00
2022-09-18T18:06:47.280Z,2.00
2022-09-18T18:09:16.815Z,2.75
2022-09-18T18:11:46.247Z,2.00
2022-09-18T18:14:14.797Z,1.75
2022-09-18T18:16:43.861Z,1.00
2022-09-18T18:19:13.004Z,6.00
2022-09-18T18:21:43.416Z,5.75
2022-09-18T18:24:16.482Z,4.00
2022-09-18T18:26:46.614Z,4.00
2022-09-18T18:29:18.559Z,6.50
2022-09-18T18:31:49.490Z,9.60
2022-09-18T18:34:22.353Z,11.33
2022-09-18T18:36:50.963Z,14.00
2022-09-18T18:39:20.195Z,18.00
2022-09-18T18:41:50.488Z,20.00
2022-09-18T18:44:18.524Z,13.00
2022-09-18T18:46:46.183Z,8.50
2022-09-18T18:49:16.312Z,7.00
2022-09-18T18:51:48.199Z,25.00
2022-09-18T18:54:21.964Z,9.00
2022-09-18T18:56:51.732Z,6.00
2022-09-18T18:59:22.369Z,4.00
2022-09-18T19:01:50.336Z,4.00
2022-09-18T19:04:20.055Z,8.80
2022-09-18T19:06:49.797Z,26.33
2022-09-18T19:09:24.459Z,78.00
2022-09-18T19:11:54.322Z,88.33
2022-09-18T19:14:31.093Z,93.50
2022-09-18T19:17:01.458Z,51.67
2022-09-18T19:19:31.352Z,37.33
2022-09-18T19:21:59.936Z,21.00
2022-09-18T19:24:28.892Z,14.00
2022-09-18T19:26:57.262Z,14.00
2022-09-18T19:29:25.821Z,17.67
2022-09-18T19:31:56.520Z,23.33
2022-09-18T19:34:27.178Z,19.00
2022-09-18T19:36:56.417Z,19.50
2022-09-18T19:39:25.078Z,19.00
2022-09-18T19:42:12.436Z,92.33
2022-09-18T19:44:56.718Z,5.00
2022-09-18T19:47:40.082Z,16.00
2022-09-18T19:50:24.104Z,15.00
2022-09-18T19:52:52.139Z,15.00
2022-09-18T19:55:23.363Z,20.00
2022-09-18T19:57:56.530Z,13.00
2022-09-18T20:00:26.414Z,14.50
2022-09-18T20:02:59.492Z,13.00
2022-09-18T20:05:28.183Z,17.33
2022-09-18T20:07:57.664Z,12.20
2022-09-18T20:10:25.323Z,7.00
2022-09-18T20:12:54.101Z,9.00
2022-09-18T20:15:21.741Z,8.00
2022-09-18T20:17:49.559Z,11.00
2022-09-18T20:20:19.253Z,8.40
2022-09-18T20:22:55.003Z,4.71
2022-09-18T20:25:25.158Z,6.00
2022-09-18T20:27:52.950Z,7.00
2022-09-18T20:30:21.552Z,5.50
2022-09-18T20:32:49.308Z,4.00
2022-09-18T20:35:18.393Z,5.00
2022-09-18T20:37:46.014Z,4.00
2022-09-18T20:40:14.526Z,4.50
2022-09-18T20:42:43.007Z,5.50
2022-09-18T20:45:10.703Z,5.00
2022-09-18T20:47:38.792Z,5.00
2022-09-18T20:50:13.594Z,4.00
2022-09-18T20:52:43.712Z,2.50
2022-09-18T20:55:16.382Z,3.00
2022-09-18T20:57:46.255Z,3.00
2022-09-18T21:00:17.260Z,3.00
2022-09-18T21:02:51.797Z,2.75
2022-09-18T21:05:19.569Z,2.50
2022-09-18T21:07:48.362Z,2.00
2022-09-18T21:10:16.269Z,3.00
2022-09-18T21:12:44.001Z,2.00
2022-09-18T21:15:16.198Z,2.00
2022-09-18T21:17:43.960Z,3.00
2022-09-18T21:20:13.374Z,3.00
2022-09-18T21:23:01.176Z,3.00
2022-09-18T21:25:31.783Z,3.00
2022-09-18T21:27:59.428Z,2.00
2022-09-18T21:30:27.391Z,1.50
2022-09-18T21:32:55.903Z,2.00
2022-09-18T21:35:23.645Z,3.00
2022-09-18T21:37:52.168Z,2.00
2022-09-18T21:40:19.799Z,2.00
2022-09-18T21:42:47.754Z,1.00
2022-09-18T21:45:20.401Z,3.00
2022-09-18T21:47:50.644Z,6.00
2022-09-18T21:50:19.296Z,5.00
2022-09-18T21:52:48.274Z,6.00
2022-09-18T21:55:15.966Z,6.00
2022-09-18T21:57:43.600Z,4.00
2022-09-18T22:00:12.844Z,3.00
2022-09-18T22:02:41.164Z,3.00
2022-09-18T22:05:11.835Z,2.00
2022-09-18T22:07:40.926Z,2.50
2022-09-18T22:10:09.487Z,2.00
2022-09-18T22:12:39.103Z,3.00
2022-09-18T22:15:07.623Z,4.50
2022-09-18T22:17:36.088Z,1.00
2022-09-18T22:20:05.900Z,2.00
2022-09-18T22:22:34.048Z,2.00
2022-09-18T22:25:03.300Z,2.00
2022-09-18T22:27:31.781Z,1.75
2022-09-18T22:30:00.224Z,1.25
2022-09-18T22:32:28.638Z,1.75
2022-09-18T22:34:56.337Z,3.00
2022-09-18T22:37:24.051Z,2.00
2022-09-18T22:39:52.485Z,1.50
2022-09-18T22:42:20.748Z,1.00
2022-09-18T22:44:48.441Z,2.00
2022-09-18T22:47:16.080Z,1.00
2022-09-18T22:49:44.487Z,1.00
2022-09-18T22:52:12.403Z,2.00
2022-09-18T22:54:40.022Z,1.00
2022-09-18T22:57:08.579Z,2.00
2022-09-18T22:59:36.227Z,2.00
2022-09-18T23:02:06.742Z,3.00
2022-09-18T23:04:35.906Z,2.00
2022-09-18T23:07:04.352Z,2.00
2022-09-18T23:09:32.128Z,2.00
2022-09-18T23:12:00.888Z,1.00
2022-09-18T23:14:31.692Z,5.00
2022-09-18T23:17:01.519Z,1.00
2022-09-18T23:19:35.446Z,1.00
2022-09-18T23:22:04.848Z,1.00
2022-09-18T23:24:33.294Z,1.00
2022-09-18T23:27:01.761Z,0.00
2022-09-18T23:29:32.013Z,1.00
2022-09-18T23:32:00.349Z,1.00
2022-09-18T23:34:33.838Z,1.00
2022-09-18T23:37:02.718Z,1.00
2022-09-18T23:39:35.409Z,1.00
2022-09-18T23:42:05.980Z,1.00
2022-09-18T23:44:34.671Z,0.75
2022-09-18T23:47:03.887Z,1.00
2022-09-18T23:49:33.551Z,1.00
2022-09-18T23:52:02.686Z,1.50
2022-09-18T23:54:32.535Z,1.00
2022-09-18T23:57:01.113Z,1.00
2022-09-18T23:59:29.710Z,1.00
